Time,TemperatureF,DewpointF,PressureIn,WindDirection,WindDirectionDegrees,WindSpeedMPH,WindSpeedGustMPH,Humidity,HourlyPrecipIn,Conditions,Clouds,dailyrainin,SoftwareType,DateUTC
2013-03-24 00:12:00,31.0,20.0,29.79,West,276,4.0,9.0,65,0.00,,,0.00,weatherlink.com 1.10,2013-03-24 04:12:00,
2013-03-24 00:27:00,31.0,20.0,29.79,WNW,301,3.0,10.0,64,0.00,,,0.00,weatherlink.com 1.10,2013-03-24 04:27:00,
2013-03-24 00:42:00,30.6,20.0,29.79,WNW,292,5.0,7.0,65,0.00,,,0.00,weatherlink.com 1.10,2013-03-24 04:42:00,
2013-03-24 00:57:00,30.6,20.0,29.79,WNW,295,4.0,9.0,65,0.00,,,0.00,weatherlink.com 1.10,2013-03-24 04:57:00,
2013-03-24 01:12:00,30.5,20.0,29.79,WSW,258,2.0,9.0,66,0.00,,,0.00,weatherlink.com 1.10,2013-03-24 05:12:00,
2013-03-24 01:27:00,30.7,21.0,29.79,WSW,240,2.0,11.0,66,0.00,,,0.00,weatherlink.com 1.10,2013-03-24 05:27:00,
2013-03-24 01:42:00,30.8,21.0,29.80,West,281,1.0,10.0,67,0.00,,,0.00,weatherlink.com 1.10,2013-03-24 05:42:00,
2013-03-24 01:57:00,30.8,21.0,29.80,West,276,4.0,12.0,67,0.00,,,0.00,weatherlink.com 1.10,2013-03-24 05:57:00,
2013-03-24 02:12:00,31.0,21.0,29.80,North,353,12.0,15.0,67,0.00,,,0.00,weatherlink.com 1.10,2013-03-24 06:12:00,
2013-03-24 02:27:00,30.9,21.0,29.79,WNW,293,2.0,13.0,68,0.00,,,0.00,weatherlink.com 1.10,2013-03-24 06:27:00,
2013-03-24 02:42:00,31.0,21.0,29.80,WSW,245,3.0,11.0,67,0.00,,,0.00,weatherlink.com 1.10,2013-03-24 06:42:00,
2013-03-24 02:57:00,30.9,21.0,29.79,WNW,290,5.0,10.0,68,0.00,,,0.00,weatherlink.com 1.10,2013-03-24 06:57:00,
2013-03-24 03:12:00,31.0,22.0,29.80,North,349,6.0,13.0,68,0.00,,,0.00,weatherlink.com 1.10,2013-03-24 07:12:00,
2013-03-24 03:27:00,30.9,21.0,29.79,West,280,2.0,10.0,68,0.00,,,0.00,weatherlink.com 1.10,2013-03-24 07:27:00,
2013-03-24 03:42:00,30.9,21.0,29.79,West,276,2.0,12.0,68,0.00,,,0.00,weatherlink.com 1.10,2013-03-24 07:42:00,
2013-03-24 03:57:00,30.8,22.0,29.78,WNW,285,5.0,12.0,69,0.00,,,0.00,weatherlink.com 1.10,2013-03-24 07:57:00,
2013-03-24 04:15:00,30.7,22.0,29.78,WSW,242,5.0,9.0,69,0.00,,,0.00,weatherlink.com 1.10,2013-03-24 08:15:00,
2013-03-24 04:27:00,30.7,22.0,29.78,WNW,299,9.0,9.0,69,0.00,,,0.00,weatherlink.com 1.10,2013-03-24 08:27:00,
2013-03-24 04:42:00,30.6,22.0,29.77,WNW,287,5.0,15.0,70,0.00,,,0.00,weatherlink.com 1.10,2013-03-24 08:42:00,
2013-03-24 04:57:00,30.5,22.0,29.78,NW,319,5.0,7.0,71,0.00,,,0.00,weatherlink.com 1.10,2013-03-24 08:57:00,
2013-03-24 05:12:00,30.4,22.0,29.78,WNW,287,5.0,12.0,71,0.00,,,0.00,weatherlink.com 1.10,2013-03-24 09:12:00,
2013-03-24 05:27:00,30.5,22.0,29.78,West,276,6.0,12.0,70,0.00,,,0.00,weatherlink.com 1.10,2013-03-24 09:27:00,
2013-03-24 05:42:00,30.2,22.0,29.78,West,264,5.0,11.0,71,0.00,,,0.00,weatherlink.com 1.10,2013-03-24 09:42:00,
2013-03-24 05:57:00,29.8,22.0,29.77,West,267,6.0,9.0,72,0.00,,,0.00,weatherlink.com 1.10,2013-03-24 09:57:00,
2013-03-24 06:12:00,29.7,22.0,29.78,NW,309,2.0,13.0,72,0.00,,,0.00,weatherlink.com 1.10,2013-03-24 10:12:00,
2013-03-24 06:27:00,29.4,21.0,29.80,WSW,246,2.0,7.0,72,0.00,,,0.00,weatherlink.com 1.10,2013-03-24 10:27:00,
2013-03-24 06:43:00,29.3,21.0,29.81,WNW,284,4.0,13.0,72,0.00,,,0.00,weatherlink.com 1.10,2013-03-24 10:43:00,
2013-03-24 06:58:00,29.4,21.0,29.82,West,281,5.0,11.0,72,0.00,,,0.00,weatherlink.com 1.10,2013-03-24 10:58:00,
2013-03-24 07:13:00,29.7,21.0,29.81,WNW,291,4.0,11.0,71,0.00,,,0.00,weatherlink.com 1.10,2013-03-24 11:13:00,
2013-03-24 07:28:00,30.3,22.0,29.81,NW,311,4.0,18.0,70,0.00,,,0.00,weatherlink.com 1.10,2013-03-24 11:28:00,
2013-03-24 07:43:00,31.2,22.0,29.82,WNW,287,11.0,19.0,68,0.00,,,0.00,weatherlink.com 1.10,2013-03-24 11:43:00,
2013-03-24 07:58:00,31.8,22.0,29.80,WSW,245,12.0,12.0,67,0.00,,,0.00,weatherlink.com 1.10,2013-03-24 11:58:00,
2013-03-24 08:13:00,32.9,22.0,29.81,NNW,333,7.0,14.0,65,0.00,,,0.00,weatherlink.com 1.10,2013-03-24 12:13:00,
2013-03-24 08:28:00,33.3,22.0,29.81,West,278,9.0,15.0,63,0.00,,,0.00,weatherlink.com 1.10,2013-03-24 12:28:00,
2013-03-24 08:43:00,33.9,22.0,29.81,NNW,340,5.0,15.0,62,0.00,,,0.00,weatherlink.com 1.10,2013-03-24 12:43:00,
2013-03-24 08:58:00,34.4,22.0,29.80,SSE,158,2.0,11.0,61,0.00,,,0.00,weatherlink.com 1.10,2013-03-24 12:58:00,
2013-03-24 09:13:00,35.3,22.0,29.80,NNE,16,8.0,13.0,59,0.00,,,0.00,weatherlink.com 1.10,2013-03-24 13:13:00,
2013-03-24 09:28:00,36.3,23.0,29.80,WNW,291,2.0,12.0,58,0.00,,,0.00,weatherlink.com 1.10,2013-03-24 13:28:00,
2013-03-24 09:43:00,36.4,22.0,29.80,WNW,285,4.0,15.0,56,0.00,,,0.00,weatherlink.com 1.10,2013-03-24 13:43:00,
2013-03-24 09:58:00,36.9,22.0,29.80,North,350,2.0,15.0,56,0.00,,,0.00,weatherlink.com 1.10,2013-03-24 13:58:00,
2013-03-24 10:13:00,37.3,23.0,29.80,NNW,328,6.0,21.0,56,0.00,,,0.00,weatherlink.com 1.10,2013-03-24 14:13:00,
2013-03-24 10:28:00,38.5,23.0,29.80,West,264,3.0,11.0,53,0.00,,,0.00,weatherlink.com 1.10,2013-03-24 14:28:00,
2013-03-24 10:43:00,37.2,23.0,29.81,West,278,7.0,15.0,56,0.00,,,0.00,weatherlink.com 1.10,2013-03-24 14:43:00,
2013-03-24 10:58:00,37.5,23.0,29.80,West,280,9.0,15.0,55,0.00,,,0.00,weatherlink.com 1.10,2013-03-24 14:58:00,
2013-03-24 11:13:00,39.0,23.0,29.81,West,267,3.0,10.0,52,0.00,,,0.00,weatherlink.com 1.10,2013-03-24 15:13:00,
2013-03-24 11:28:00,38.9,22.0,29.81,SW,219,2.0,15.0,51,0.00,,,0.00,weatherlink.com 1.10,2013-03-24 15:28:00,
2013-03-24 11:43:00,40.1,23.0,29.80,WNW,297,2.0,11.0,51,0.00,,,0.00,weatherlink.com 1.10,2013-03-24 15:43:00,
2013-03-24 11:58:00,39.6,23.0,29.80,NW,314,3.0,9.0,52,0.00,,,0.00,weatherlink.com 1.10,2013-03-24 15:58:00,
2013-03-24 12:13:00,40.5,23.0,29.80,WNW,285,8.0,11.0,50,0.00,,,0.00,weatherlink.com 1.10,2013-03-24 16:13:00,
2013-03-24 12:28:00,41.3,23.0,29.80,WNW,294,6.0,14.0,48,0.00,,,0.00,weatherlink.com 1.10,2013-03-24 16:28:00,
2013-03-24 12:43:00,40.3,23.0,29.80,SE,145,1.0,11.0,50,0.00,,,0.00,weatherlink.com 1.10,2013-03-24 16:43:00,
2013-03-24 12:58:00,40.1,23.0,29.80,North,349,4.0,14.0,51,0.00,,,0.00,weatherlink.com 1.10,2013-03-24 16:58:00,
2013-03-24 13:13:00,39.6,23.0,29.79,West,275,6.0,14.0,52,0.00,,,0.00,weatherlink.com 1.10,2013-03-24 17:13:00,
2013-03-24 13:28:00,40.3,24.0,29.78,SW,228,5.0,12.0,53,0.00,,,0.00,weatherlink.com 1.10,2013-03-24 17:28:00,
2013-03-24 13:43:00,40.7,23.0,29.78,SW,231,1.0,13.0,49,0.00,,,0.00,weatherlink.com 1.10,2013-03-24 17:43:00,
2013-03-24 13:58:00,41.2,24.0,29.78,WSW,257,4.0,11.0,50,0.00,,,0.00,weatherlink.com 1.10,2013-03-24 17:58:00,
2013-03-24 14:13:00,40.5,23.0,29.77,WNW,283,2.0,11.0,50,0.00,,,0.00,weatherlink.com 1.10,2013-03-24 18:13:00,
2013-03-24 14:29:00,41.1,24.0,29.77,WSW,256,1.0,17.0,50,0.00,,,0.00,weatherlink.com 1.10,2013-03-24 18:29:00,
2013-03-24 14:43:00,41.3,23.0,29.77,North,358,2.0,14.0,49,0.00,,,0.00,weatherlink.com 1.10,2013-03-24 18:43:00,
2013-03-24 14:58:00,41.8,24.0,29.76,NW,325,5.0,11.0,49,0.00,,,0.00,weatherlink.com 1.10,2013-03-24 18:58:00,
2013-03-24 15:14:00,41.8,23.0,29.75,WNW,293,5.0,13.0,48,0.00,,,0.00,weatherlink.com 1.10,2013-03-24 19:14:00,
2013-03-24 15:29:00,42.0,23.0,29.75,North,355,4.0,10.0,47,0.00,,,0.00,weatherlink.com 1.10,2013-03-24 19:29:00,
2013-03-24 15:44:00,41.8,23.0,29.74,WSW,253,1.0,13.0,47,0.00,,,0.00,weatherlink.com 1.10,2013-03-24 19:44:00,
2013-03-24 15:59:00,42.4,23.0,29.74,SW,231,1.0,13.0,47,0.00,,,0.00,weatherlink.com 1.10,2013-03-24 19:59:00,
2013-03-24 16:14:00,43.1,23.0,29.74,WNW,284,5.0,7.0,45,0.00,,,0.00,weatherlink.com 1.10,2013-03-24 20:14:00,
2013-03-24 16:29:00,42.3,23.0,29.74,NNW,338,0.0,8.0,46,0.00,,,0.00,weatherlink.com 1.10,2013-03-24 20:29:00,
2013-03-24 16:59:00,41.7,24.0,29.73,West,263,2.0,11.0,50,0.00,,,0.00,weatherlink.com 1.10,2013-03-24 20:59:00,
2013-03-24 17:14:00,42.0,23.0,29.73,West,281,1.0,9.0,47,0.00,,,0.00,weatherlink.com 1.10,2013-03-24 21:14:00,
2013-03-24 17:29:00,42.0,24.0,29.73,East,84,2.0,7.0,49,0.00,,,0.00,weatherlink.com 1.10,2013-03-24 21:29:00,
2013-03-24 17:44:00,41.5,22.0,29.74,North,9,2.0,5.0,47,0.00,,,0.00,weatherlink.com 1.10,2013-03-24 21:44:00,
2013-03-24 17:59:00,40.8,23.0,29.75,WNW,287,0.0,8.0,49,0.00,,,0.00,weatherlink.com 1.10,2013-03-24 21:59:00,
2013-03-24 18:14:00,39.9,23.0,29.75,NNW,332,3.0,3.0,51,0.00,,,0.00,weatherlink.com 1.10,2013-03-24 22:14:00,
2013-03-24 18:29:00,38.7,23.0,29.75,West,276,1.0,5.0,53,0.00,,,0.00,weatherlink.com 1.10,2013-03-24 22:29:00,
2013-03-24 18:44:00,37.4,22.0,29.75,WNW,287,1.0,2.0,55,0.00,,,0.00,weatherlink.com 1.10,2013-03-24 22:44:00,
2013-03-24 18:59:00,36.5,22.0,29.75,West,267,0.0,3.0,56,0.00,,,0.00,weatherlink.com 1.10,2013-03-24 22:59:00,
2013-03-24 19:14:00,35.7,22.0,29.76,WSW,251,0.0,1.0,58,0.00,,,0.00,weatherlink.com 1.10,2013-03-24 23:14:00,
2013-03-24 19:29:00,32.9,23.0,29.76,SSE,163,1.0,2.0,66,0.00,,,0.00,weatherlink.com 1.10,2013-03-24 23:29:00,
2013-03-24 19:44:00,31.8,22.0,29.76,WNW,293,0.0,1.0,68,0.00,,,0.00,weatherlink.com 1.10,2013-03-24 23:44:00,
2013-03-24 19:59:00,30.4,23.0,29.76,WNW,293,0.0,1.0,73,0.00,,,0.00,weatherlink.com 1.10,2013-03-24 23:59:00,
2013-03-24 20:14:00,29.6,24.0,29.76,WNW,292,0.0,1.0,78,0.00,,,0.00,weatherlink.com 1.10,2013-03-25 00:14:00,
2013-03-24 20:29:00,29.3,23.0,29.76,WNW,284,0.0,1.0,77,0.00,,,0.00,weatherlink.com 1.10,2013-03-25 00:29:00,
2013-03-24 20:44:00,29.0,23.0,29.77,WNW,284,0.0,1.0,78,0.00,,,0.00,weatherlink.com 1.10,2013-03-25 00:44:00,
2013-03-24 20:59:00,28.6,24.0,29.77,WSW,248,0.0,1.0,81,0.00,,,0.00,weatherlink.com 1.10,2013-03-25 00:59:00,
2013-03-24 21:14:00,30.0,23.0,29.78,WNW,285,1.0,2.0,74,0.00,,,0.00,weatherlink.com 1.10,2013-03-25 01:14:00,
2013-03-24 21:29:00,30.8,22.0,29.79,NNW,346,2.0,7.0,71,0.00,,,0.00,weatherlink.com 1.10,2013-03-25 01:29:00,
2013-03-24 21:44:00,31.3,22.0,29.79,West,273,0.0,2.0,69,0.00,,,0.00,weatherlink.com 1.10,2013-03-25 01:44:00,
2013-03-24 21:59:00,31.2,22.0,29.79,WSW,258,1.0,3.0,69,0.00,,,0.00,weatherlink.com 1.10,2013-03-25 01:59:00,
2013-03-24 22:14:00,31.5,22.0,29.79,WSW,238,0.0,2.0,68,0.00,,,0.00,weatherlink.com 1.10,2013-03-25 02:14:00,
2013-03-24 22:29:00,30.4,23.0,29.79,SSE,155,0.0,2.0,73,0.00,,,0.00,weatherlink.com 1.10,2013-03-25 02:29:00,
2013-03-24 22:44:00,29.5,23.0,29.78,SSE,150,1.0,2.0,75,0.00,,,0.00,weatherlink.com 1.10,2013-03-25 02:44:00,
2013-03-24 22:59:00,29.0,22.0,29.78,South,174,0.0,1.0,74,0.00,,,0.00,weatherlink.com 1.10,2013-03-25 02:59:00,
2013-03-24 23:14:00,28.7,22.0,29.78,SW,221,0.0,2.0,76,0.00,,,0.00,weatherlink.com 1.10,2013-03-25 03:14:00,
2013-03-24 23:29:00,28.1,22.0,29.78,SSE,152,0.0,0.0,78,0.00,,,0.00,weatherlink.com 1.10,2013-03-25 03:29:00,
2013-03-24 23:44:00,27.0,22.0,29.78,SSE,168,0.0,0.0,81,0.00,,,0.00,weatherlink.com 1.10,2013-03-25 03:44:00,
2013-03-24 23:59:00,26.3,22.0,29.78,SSE,168,0.0,0.0,82,0.00,,,0.00,weatherlink.com 1.10,2013-03-25 03:59:00,